Time;durP1;ratioP1;P1;durP2;ratioP2;P2;SDS_P1;SDS_P2;PMS_P1;PMS_P2;Temp;Humidity;BMP_temperature;BMP_pressure;BME280_temperature;BME280_humidity;BME280_pressure;Samples;Min_cycle;Max_cycle;Signal;HPM_P1;HPM_P2
2021/07/02 00:00:16;;;;;;;7.40;4.60;;;22.00;60.50;;;;;;4182262;28;20378;-59
2021/07/02 00:02:18;;;;;;;7.57;4.88;;;22.10;60.00;;;;;;4184265;28;20063;-56
2021/07/02 00:04:21;;;;;;;5.80;4.97;;;22.30;60.00;;;;;;4181726;28;20040;-58
2021/07/02 00:06:23;;;;;;;6.50;4.85;;;22.40;59.80;;;;;;4181988;28;20035;-58
2021/07/02 00:08:28;;;;;;;5.93;5.03;;;22.30;59.60;;;;;;4184751;28;20146;-57
2021/07/02 00:10:30;;;;;;;7.22;5.60;;;22.20;59.50;;;;;;4183644;28;21338;-59
2021/07/02 00:12:32;;;;;;;7.40;5.38;;;22.10;59.90;;;;;;4184842;28;20464;-58
2021/07/02 00:14:34;;;;;;;9.52;5.72;;;22.00;60.20;;;;;;4184792;28;20056;-58
2021/07/02 00:16:36;;;;;;;8.73;6.05;;;22.00;60.60;;;;;;4183861;28;20016;-55
2021/07/02 00:18:39;;;;;;;9.07;5.40;;;21.90;60.90;;;;;;4180936;28;20123;-56
2021/07/02 00:20:41;;;;;;;7.60;5.65;;;21.80;61.10;;;;;;4187971;28;20116;-57
2021/07/02 00:22:43;;;;;;;8.27;5.03;;;21.80;61.30;;;;;;4184808;28;20032;-57
2021/07/02 00:24:45;;;;;;;6.55;5.35;;;21.70;61.50;;;;;;4187049;28;20339;-58
2021/07/02 00:26:47;;;;;;;7.38;5.82;;;21.70;61.60;;;;;;4186262;28;20377;-56
2021/07/02 00:28:49;;;;;;;7.75;5.97;;;21.70;61.40;;;;;;4183018;28;20104;-56
2021/07/02 00:30:51;;;;;;;6.85;6.05;;;21.60;61.30;;;;;;4187742;28;20115;-57
2021/07/02 00:32:53;;;;;;;6.67;5.33;;;21.80;60.80;;;;;;4182420;28;20418;-56
2021/07/02 00:34:55;;;;;;;7.35;5.90;;;21.90;60.50;;;;;;4184472;28;20321;-54
2021/07/02 00:36:57;;;;;;;6.57;5.85;;;21.90;60.40;;;;;;4180889;28;20488;-55
2021/07/02 00:39:00;;;;;;;6.78;5.75;;;21.90;60.60;;;;;;4166799;28;20047;-55
2021/07/02 00:41:02;;;;;;;8.57;5.80;;;21.80;61.00;;;;;;4181503;28;20032;-57
2021/07/02 00:43:04;;;;;;;8.00;5.55;;;21.80;61.20;;;;;;4181679;28;20036;-57
2021/07/02 00:45:07;;;;;;;6.40;5.47;;;21.70;61.30;;;;;;4184231;28;20025;-59
2021/07/02 00:47:10;;;;;;;8.85;6.47;;;21.70;61.60;;;;;;4185098;28;20046;-52
2021/07/02 00:49:13;;;;;;;8.60;5.68;;;21.70;61.60;;;;;;4186348;28;20489;-54
2021/07/02 00:51:15;;;;;;;8.25;5.68;;;21.60;61.50;;;;;;4185707;28;20036;-54
2021/07/02 00:53:19;;;;;;;9.15;5.65;;;21.60;61.60;;;;;;4186601;28;20093;-53
2021/07/02 00:55:21;;;;;;;8.45;6.03;;;21.60;61.60;;;;;;4185147;28;20127;-56
2021/07/02 00:57:25;;;;;;;7.18;5.95;;;21.50;61.40;;;;;;4187807;28;20039;-55
2021/07/02 00:59:26;;;;;;;;;;;21.50;61.10;;;;;;4187090;28;20059;-55
2021/07/02 01:01:28;;;;;;;7.15;5.93;;;21.50;61.10;;;;;;4183514;28;19995;-55
2021/07/02 01:03:30;;;;;;;8.27;6.32;;;21.70;62.40;;;;;;4181219;28;20488;-53
2021/07/02 01:05:32;;;;;;;8.15;6.30;;;21.80;61.90;;;;;;4181710;28;20104;-56
2021/07/02 01:07:35;;;;;;;9.10;6.55;;;21.80;62.00;;;;;;4184869;28;20039;-56
2021/07/02 01:09:37;;;;;;;9.32;6.43;;;21.80;62.10;;;;;;4181105;28;20032;-56
2021/07/02 01:11:40;;;;;;;7.17;6.20;;;21.80;61.90;;;;;;4183365;28;20032;-56
2021/07/02 01:13:42;;;;;;;8.77;6.80;;;21.70;61.90;;;;;;4181460;28;20151;-57
2021/07/02 01:15:44;;;;;;;7.30;5.95;;;21.70;62.10;;;;;;4186283;28;20155;-54
2021/07/02 01:17:46;;;;;;;7.97;6.30;;;21.70;62.10;;;;;;4183223;28;20028;-53
2021/07/02 01:19:54;;;;;;;7.28;6.07;;;21.60;62.40;;;;;;4166287;28;20033;-54
2021/07/02 01:21:56;;;;;;;7.75;6.22;;;21.60;62.60;;;;;;4183645;28;20082;-52
2021/07/02 01:23:58;;;;;;;6.57;5.82;;;21.60;62.60;;;;;;4161115;28;20039;-57
2021/07/02 01:26:01;;;;;;;7.85;6.45;;;21.60;62.60;;;;;;4184171;28;21370;-50
2021/07/02 01:28:04;;;;;;;7.22;6.43;;;21.60;62.90;;;;;;4181501;28;20067;-49
2021/07/02 01:30:08;;;;;;;7.75;6.43;;;21.50;63.00;;;;;;4183736;28;20392;-47
2021/07/02 01:32:10;;;;;;;8.02;6.88;;;21.50;63.20;;;;;;4183305;28;20370;-49
2021/07/02 01:34:13;;;;;;;7.38;6.20;;;21.50;63.00;;;;;;4185624;28;20103;-54
2021/07/02 01:36:23;;;;;;;7.03;6.32;;;21.50;63.00;;;;;;4182210;28;20033;-52
2021/07/02 01:38:25;;;;;;;7.93;6.38;;;21.50;63.20;;;;;;4185324;28;20353;-50
2021/07/02 01:40:28;;;;;;;7.85;6.32;;;21.50;63.30;;;;;;4180257;28;20025;-50
2021/07/02 01:42:30;;;;;;;7.80;6.53;;;21.50;63.30;;;;;;4184369;28;20090;-47
2021/07/02 01:44:32;;;;;;;7.72;6.45;;;21.40;63.40;;;;;;4182167;28;20268;-47
2021/07/02 01:46:34;;;;;;;6.82;6.07;;;21.40;63.40;;;;;;4184401;28;20032;-50
2021/07/02 01:48:37;;;;;;;7.38;6.55;;;21.40;63.20;;;;;;4187892;28;20040;-49
2021/07/02 01:50:39;;;;;;;7.78;6.75;;;21.40;63.40;;;;;;4183543;28;20102;-51
2021/07/02 01:52:41;;;;;;;7.23;6.40;;;21.40;63.50;;;;;;4185825;28;20123;-52
2021/07/02 01:54:43;;;;;;;7.22;6.22;;;21.40;63.80;;;;;;4183571;28;20028;-48
2021/07/02 01:56:48;;;;;;;7.75;5.90;;;21.30;63.60;;;;;;4181655;28;20419;-52
2021/07/02 01:58:51;;;;;;;7.53;6.00;;;21.30;63.70;;;;;;4186115;28;20268;-49
2021/07/02 02:00:53;;;;;;;8.73;6.10;;;21.30;63.50;;;;;;4185813;28;20021;-51
2021/07/02 02:02:56;;;;;;;7.78;6.40;;;21.30;63.80;;;;;;4183960;28;20604;-51
2021/07/02 02:04:58;;;;;;;8.23;6.15;;;21.30;63.70;;;;;;4181043;28;20032;-51
2021/07/02 02:07:00;;;;;;;6.55;5.75;;;21.30;63.70;;;;;;4184766;28;20052;-55
2021/07/02 02:09:03;;;;;;;8.30;6.88;;;21.20;63.60;;;;;;4179928;28;20032;-50
2021/07/02 02:11:05;;;;;;;7.28;6.43;;;21.20;64.20;;;;;;4180260;28;20033;-50
2021/07/02 02:13:07;;;;;;;8.15;6.40;;;21.20;63.70;;;;;;4181453;28;20036;-55
2021/07/02 02:15:10;;;;;;;8.77;6.53;;;21.20;63.90;;;;;;4185608;28;20540;-48
2021/07/02 02:17:12;;;;;;;7.45;6.35;;;21.20;64.00;;;;;;4181738;28;20088;-51
2021/07/02 02:19:14;;;;;;;8.07;6.47;;;21.20;64.00;;;;;;4183633;28;20101;-51
2021/07/02 02:21:16;;;;;;;8.70;6.65;;;21.10;64.10;;;;;;4180257;28;20017;-54
2021/07/02 02:23:18;;;;;;;8.45;7.10;;;21.10;64.20;;;;;;4179483;28;20807;-53
2021/07/02 02:25:21;;;;;;;7.35;6.35;;;21.10;64.20;;;;;;4186946;28;20279;-53
2021/07/02 02:27:23;;;;;;;8.82;6.55;;;21.10;64.10;;;;;;4189088;28;20564;-53
2021/07/02 02:29:25;;;;;;;8.88;6.85;;;21.10;64.10;;;;;;4185268;28;20050;-51
2021/07/02 02:31:27;;;;;;;7.63;6.20;;;21.10;64.30;;;;;;4184367;28;20456;-49
2021/07/02 02:33:29;;;;;;;7.63;6.40;;;21.00;64.20;;;;;;4184202;28;20057;-51
2021/07/02 02:35:33;;;;;;;7.78;6.78;;;21.00;64.30;;;;;;4191249;28;20453;-50
2021/07/02 02:37:34;;;;;;;;;;;21.00;64.20;;;;;;4169876;28;20048;-53
2021/07/02 02:39:36;;;;;;;7.30;6.32;;;21.00;64.10;;;;;;4188883;28;20294;-49
2021/07/02 02:41:39;;;;;;;7.57;6.00;;;21.00;64.40;;;;;;4185308;28;20043;-52
2021/07/02 02:43:41;;;;;;;8.02;6.65;;;21.00;64.40;;;;;;4185572;28;20131;-54
2021/07/02 02:45:43;;;;;;;7.75;6.07;;;20.90;64.40;;;;;;4188061;28;20017;-50
2021/07/02 02:47:45;;;;;;;8.07;6.75;;;20.90;64.60;;;;;;4188543;28;20017;-47
2021/07/02 02:49:47;;;;;;;6.85;5.88;;;20.90;65.20;;;;;;4187967;28;20023;-52
2021/07/02 02:51:49;;;;;;;7.63;6.30;;;20.90;65.40;;;;;;4190005;28;20028;-51
2021/07/02 02:53:52;;;;;;;8.30;7.25;;;20.90;65.90;;;;;;4187114;28;20039;-54
2021/07/02 02:55:54;;;;;;;9.13;7.13;;;20.90;66.10;;;;;;4187238;28;20480;-50
2021/07/02 02:57:56;;;;;;;9.10;7.05;;;20.90;66.20;;;;;;4189245;28;20104;-54
2021/07/02 02:59:58;;;;;;;7.55;6.75;;;20.90;66.50;;;;;;4188579;28;20038;-52
2021/07/02 03:02:00;;;;;;;8.38;7.03;;;20.90;66.80;;;;;;4191440;28;20414;-52
2021/07/02 03:04:02;;;;;;;8.63;6.95;;;20.90;66.90;;;;;;4189726;28;20040;-51
2021/07/02 03:06:05;;;;;;;9.30;7.18;;;20.90;66.90;;;;;;4191253;28;20047;-49
2021/07/02 03:08:07;;;;;;;8.18;7.00;;;20.90;66.90;;;;;;4188124;28;20028;-54
2021/07/02 03:10:10;;;;;;;8.70;6.70;;;20.90;66.90;;;;;;4185226;28;20029;-55
2021/07/02 03:12:12;;;;;;;9.88;7.43;;;20.90;67.10;;;;;;4188994;28;20226;-49
2021/07/02 03:14:14;;;;;;;8.00;6.90;;;20.90;66.80;;;;;;4186081;28;20487;-53
2021/07/02 03:16:16;;;;;;;8.30;7.10;;;20.90;66.80;;;;;;4188438;28;20072;-54
2021/07/02 03:18:18;;;;;;;8.40;7.55;;;20.90;66.70;;;;;;4189691;28;20379;-55
2021/07/02 03:20:20;;;;;;;8.13;6.60;;;20.90;66.60;;;;;;4188999;28;20077;-52
2021/07/02 03:22:23;;;;;;;7.20;6.28;;;20.90;66.60;;;;;;4186695;28;20047;-53
2021/07/02 03:24:25;;;;;;;8.50;7.22;;;21.00;66.60;;;;;;4191156;28;20115;-52
2021/07/02 03:26:27;;;;;;;8.45;7.50;;;20.90;66.40;;;;;;4185232;28;20028;-54
2021/07/02 03:28:32;;;;;;;8.35;6.80;;;21.00;66.50;;;;;;4190808;28;20363;-54
2021/07/02 03:30:34;;;;;;;7.35;6.05;;;21.00;66.50;;;;;;4188409;28;20116;-55
2021/07/02 03:32:36;;;;;;;8.77;6.28;;;21.00;66.70;;;;;;4187404;28;20078;-48
2021/07/02 03:34:43;;;;;;;8.77;6.65;;;21.00;66.20;;;;;;4186790;28;20033;-52
2021/07/02 03:36:45;;;;;;;8.45;7.00;;;21.00;66.10;;;;;;4186032;28;20036;-49
2021/07/02 03:38:47;;;;;;;7.72;6.28;;;21.00;66.10;;;;;;4193513;28;20028;-53
2021/07/02 03:40:49;;;;;;;8.32;6.43;;;21.00;66.10;;;;;;4185129;28;20044;-51
2021/07/02 03:42:52;;;;;;;7.65;6.78;;;21.10;66.10;;;;;;4183993;28;20029;-54
2021/07/02 03:44:54;;;;;;;6.93;5.72;;;21.10;66.10;;;;;;4184882;28;20448;-50
2021/07/02 03:46:56;;;;;;;7.65;6.82;;;21.10;66.00;;;;;;4183082;28;20035;-52
2021/07/02 03:48:58;;;;;;;6.47;5.75;;;21.10;66.00;;;;;;4186295;28;20134;-52
2021/07/02 03:51:00;;;;;;;7.05;6.35;;;21.10;65.90;;;;;;4187059;28;20068;-52
2021/07/02 03:53:02;;;;;;;7.18;6.10;;;21.20;65.90;;;;;;4187707;28;20039;-54
2021/07/02 03:55:05;;;;;;;7.37;6.57;;;21.20;65.80;;;;;;4187158;28;20048;-51
2021/07/02 03:57:13;;;;;;;7.18;6.32;;;21.20;65.80;;;;;;4187426;28;20032;-50
2021/07/02 03:59:15;;;;;;;6.80;6.10;;;21.20;65.70;;;;;;4187765;28;20036;-48
2021/07/02 04:01:17;;;;;;;6.80;6.10;;;21.30;65.70;;;;;;4185948;28;20025;-53
2021/07/02 04:03:19;;;;;;;7.20;6.00;;;21.30;65.70;;;;;;4186536;28;20036;-52
2021/07/02 04:05:22;;;;;;;7.20;6.30;;;21.30;65.50;;;;;;4179929;28;20029;-48
2021/07/02 04:07:25;;;;;;;7.70;6.03;;;21.40;65.50;;;;;;4184883;28;20028;-54
2021/07/02 04:09:27;;;;;;;6.85;6.07;;;21.40;65.90;;;;;;4186905;28;20037;-53
2021/07/02 04:11:29;;;;;;;8.05;6.10;;;21.40;65.50;;;;;;4185140;28;20627;-52
2021/07/02 04:13:31;;;;;;;9.23;6.38;;;21.40;65.30;;;;;;4187807;28;20016;-52
2021/07/02 04:15:33;;;;;;;7.05;6.10;;;21.50;65.20;;;;;;4185909;28;20094;-55
2021/07/02 04:17:38;;;;;;;7.10;6.17;;;21.50;65.20;;;;;;4190448;28;20016;-55
2021/07/02 04:19:40;;;;;;;6.07;5.28;;;21.60;65.20;;;;;;4185494;28;20051;-48
2021/07/02 04:21:42;;;;;;;7.07;5.93;;;21.60;65.10;;;;;;4192229;28;20413;-51
2021/07/02 04:23:45;;;;;;;6.93;6.22;;;21.60;65.10;;;;;;4188046;28;20115;-50
2021/07/02 04:25:47;;;;;;;6.95;5.80;;;21.60;65.20;;;;;;4181612;28;20035;-49
2021/07/02 04:27:49;;;;;;;8.02;6.18;;;21.60;65.30;;;;;;4186308;28;20101;-52
2021/07/02 04:29:52;;;;;;;7.45;5.78;;;21.60;65.30;;;;;;4184765;28;20329;-52
2021/07/02 04:31:54;;;;;;;6.47;5.78;;;21.60;65.30;;;;;;4191652;28;20116;-53
2021/07/02 04:33:56;;;;;;;7.32;6.35;;;21.50;65.30;;;;;;4184422;28;20033;-61
2021/07/02 04:35:58;;;;;;;7.55;6.38;;;21.50;65.30;;;;;;4183865;28;20056;-52
2021/07/02 04:38:01;;;;;;;9.00;6.75;;;21.50;65.10;;;;;;4186898;28;20028;-54
2021/07/02 04:40:04;;;;;;;8.02;6.40;;;21.50;65.30;;;;;;4184252;28;20034;-51
2021/07/02 04:42:08;;;;;;;7.45;6.68;;;21.50;65.50;;;;;;4180230;28;20032;-55
2021/07/02 04:44:10;;;;;;;7.35;5.65;;;21.50;65.50;;;;;;4182079;28;20047;-55
2021/07/02 04:46:12;;;;;;;6.47;5.80;;;21.60;65.40;;;;;;4188520;28;20024;-52
2021/07/02 04:48:14;;;;;;;6.20;5.50;;;21.70;65.70;;;;;;4183563;28;20214;-55
2021/07/02 04:50:16;;;;;;;6.53;5.82;;;21.70;65.10;;;;;;4190607;28;20020;-55
2021/07/02 04:52:18;;;;;;;6.63;5.70;;;21.80;65.10;;;;;;4182124;28;20017;-51
2021/07/02 04:54:20;;;;;;;7.45;5.63;;;21.90;64.90;;;;;;4189362;28;20035;-52
2021/07/02 04:56:23;;;;;;;7.55;6.38;;;21.90;64.80;;;;;;4166104;28;20108;-49
2021/07/02 04:58:25;;;;;;;6.90;6.20;;;22.00;64.70;;;;;;4180638;28;20457;-56
2021/07/02 05:00:27;;;;;;;6.22;5.63;;;22.00;64.60;;;;;;4183587;28;20092;-53
2021/07/02 05:02:29;;;;;;;6.90;6.15;;;22.10;64.70;;;;;;4183590;28;20139;-51
2021/07/02 05:04:31;;;;;;;6.00;5.40;;;22.20;64.60;;;;;;4193604;28;20042;-54
2021/07/02 05:06:33;;;;;;;6.82;5.15;;;22.20;64.40;;;;;;4181565;28;20037;-56
2021/07/02 05:08:38;;;;;;;8.60;5.35;;;22.30;64.30;;;;;;4189872;28;20048;-57
2021/07/02 05:10:42;;;;;;;6.57;5.82;;;22.30;64.10;;;;;;4185291;28;20296;-56
2021/07/02 05:12:44;;;;;;;7.32;5.57;;;22.40;64.00;;;;;;4184977;28;20024;-55
2021/07/02 05:14:47;;;;;;;5.95;5.20;;;22.40;64.00;;;;;;4186025;28;20035;-56
2021/07/02 05:16:49;;;;;;;6.20;5.60;;;22.50;64.00;;;;;;4180282;28;20043;-55
2021/07/02 05:18:51;;;;;;;5.95;5.35;;;22.50;63.80;;;;;;4164038;28;20053;-58
2021/07/02 05:20:53;;;;;;;6.45;5.57;;;22.60;63.70;;;;;;4183827;28;20054;-48
2021/07/02 05:22:55;;;;;;;5.93;5.32;;;22.60;63.60;;;;;;4186186;28;20124;-58
2021/07/02 05:24:58;;;;;;;8.70;5.78;;;22.70;63.60;;;;;;4179447;28;20125;-54
2021/07/02 05:27:00;;;;;;;5.70;4.90;;;22.70;63.60;;;;;;4179052;28;20511;-51
2021/07/02 05:29:02;;;;;;;5.80;5.20;;;22.70;63.50;;;;;;4182774;28;20028;-56
2021/07/02 05:31:04;;;;;;;5.82;4.68;;;22.80;63.40;;;;;;4187507;28;20595;-58
2021/07/02 05:33:06;;;;;;;7.57;5.55;;;22.80;63.40;;;;;;4183626;28;20476;-57
2021/07/02 05:35:09;;;;;;;6.93;5.18;;;22.80;63.50;;;;;;4186110;28;20033;-56
2021/07/02 05:37:11;;;;;;;8.93;5.00;;;22.80;63.30;;;;;;4180904;28;20069;-50
2021/07/02 05:39:13;;;;;;;6.63;4.90;;;22.70;63.40;;;;;;4181286;28;20131;-47
2021/07/02 05:41:16;;;;;;;7.15;4.93;;;22.80;63.50;;;;;;4181967;28;20381;-50
2021/07/02 05:43:18;;;;;;;6.77;5.27;;;22.80;63.30;;;;;;4181691;28;20036;-55
2021/07/02 05:45:20;;;;;;;5.88;4.63;;;22.80;63.30;;;;;;4182830;28;20337;-56
2021/07/02 05:47:23;;;;;;;7.40;5.28;;;22.80;63.40;;;;;;4180553;28;20103;-51
2021/07/02 05:49:25;;;;;;;5.95;4.80;;;22.80;63.30;;;;;;4182142;28;20405;-56
2021/07/02 05:51:27;;;;;;;6.88;4.97;;;22.80;63.40;;;;;;4183367;28;20037;-52
2021/07/02 05:53:29;;;;;;;7.07;5.13;;;22.80;63.40;;;;;;4181343;28;20040;-53
2021/07/02 05:55:31;;;;;;;5.25;4.63;;;22.70;63.30;;;;;;4182210;28;20025;-51
2021/07/02 05:57:33;;;;;;;6.10;5.07;;;22.70;63.50;;;;;;4185404;28;20028;-52
2021/07/02 05:59:36;;;;;;;6.35;4.95;;;22.70;63.60;;;;;;4184643;28;20031;-55
2021/07/02 06:01:38;;;;;;;6.28;4.93;;;22.60;63.50;;;;;;4183041;28;20518;-55
2021/07/02 06:03:40;;;;;;;6.45;4.60;;;22.60;63.60;;;;;;4184165;28;20580;-56
2021/07/02 06:05:42;;;;;;;5.60;4.80;;;22.60;63.80;;;;;;4183789;28;20021;-53
2021/07/02 06:07:52;;;;;;;6.25;4.60;;;22.50;63.90;;;;;;4182202;28;20036;-55
2021/07/02 06:09:54;;;;;;;5.53;4.82;;;22.50;64.10;;;;;;4183123;28;20389;-55
2021/07/02 06:11:56;;;;;;;6.28;4.78;;;22.50;64.10;;;;;;4185223;28;20033;-54
2021/07/02 06:13:58;;;;;;;7.10;5.13;;;22.40;64.20;;;;;;4183594;28;20032;-52
2021/07/02 06:16:01;;;;;;;6.68;5.25;;;22.40;64.30;;;;;;4181779;28;20047;-51
2021/07/02 06:18:11;;;;;;;6.70;5.07;;;22.40;64.50;;;;;;4184606;28;20346;-54
2021/07/02 06:20:14;;;;;;;6.13;4.60;;;22.40;64.60;;;;;;4187118;28;20032;-50
2021/07/02 06:22:16;;;;;;;6.07;4.78;;;22.30;64.60;;;;;;4186912;28;20134;-52
2021/07/02 06:24:18;;;;;;;6.10;5.03;;;22.30;64.70;;;;;;4181814;28;20043;-52
2021/07/02 06:26:20;;;;;;;6.93;4.82;;;22.30;64.80;;;;;;4184117;28;20036;-55
2021/07/02 06:28:22;;;;;;;7.65;5.20;;;22.20;64.80;;;;;;4185100;28;20068;-51
2021/07/02 06:30:25;;;;;;;5.68;4.53;;;22.20;64.80;;;;;;4188953;28;20047;-51
2021/07/02 06:32:28;;;;;;;7.00;4.72;;;22.20;64.90;;;;;;4177346;28;20513;-52
2021/07/02 06:34:29;;;;;;;;;;;22.20;65.00;;;;;;4183360;28;20671;-54
2021/07/02 06:36:32;;;;;;;5.45;4.65;;;22.10;65.00;;;;;;4183756;28;19908;-56
2021/07/02 06:38:34;;;;;;;5.20;4.50;;;22.10;65.00;;;;;;4176099;28;20416;-55
2021/07/02 06:40:36;;;;;;;7.60;5.20;;;22.10;65.10;;;;;;4174367;28;20579;-54
2021/07/02 06:42:38;;;;;;;8.85;4.90;;;22.10;65.00;;;;;;4175801;28;20355;-54
2021/07/02 06:44:40;;;;;;;6.78;5.07;;;22.10;65.20;;;;;;4175695;28;20030;-54
2021/07/02 06:46:42;;;;;;;6.38;4.72;;;22.10;65.30;;;;;;4176799;28;20482;-55
2021/07/02 06:48:44;;;;;;;5.65;4.60;;;22.10;65.40;;;;;;4181505;28;20036;-55
2021/07/02 06:50:46;;;;;;;6.95;4.72;;;22.00;65.40;;;;;;4178748;28;20111;-52
2021/07/02 06:52:49;;;;;;;6.60;4.57;;;22.00;65.40;;;;;;4180556;28;20602;-55
2021/07/02 06:54:51;;;;;;;7.25;4.88;;;22.00;65.50;;;;;;4180234;28;20029;-54
2021/07/02 06:57:08;;;;;;;5.95;4.82;;;22.00;65.50;;;;;;4179287;28;20024;-54
2021/07/02 06:59:10;;;;;;;6.50;4.55;;;22.00;65.50;;;;;;4181225;28;20094;-53
2021/07/02 07:01:12;;;;;;;5.75;4.38;;;21.90;65.50;;;;;;4175776;28;20322;-53
2021/07/02 07:03:14;;;;;;;5.55;4.65;;;21.90;65.60;;;;;;4179035;28;20051;-57
2021/07/02 07:05:18;;;;;;;6.33;4.67;;;21.90;65.70;;;;;;4176755;28;20059;-56
2021/07/02 07:07:20;;;;;;;5.63;4.65;;;21.90;65.70;;;;;;4182659;28;20273;-54
2021/07/02 07:09:22;;;;;;;5.53;4.30;;;21.90;65.70;;;;;;4177653;28;20103;-51
2021/07/02 07:11:24;;;;;;;7.00;4.67;;;21.90;65.80;;;;;;4184218;28;20264;-55
2021/07/02 07:13:27;;;;;;;5.80;5.10;;;21.80;65.50;;;;;;4178721;28;20401;-52
2021/07/02 07:15:29;;;;;;;6.53;5.10;;;21.80;65.40;;;;;;4186109;28;20032;-52
2021/07/02 07:17:32;;;;;;;6.63;4.73;;;21.80;65.20;;;;;;4182531;28;20193;-53
2021/07/02 07:19:34;;;;;;;7.88;4.70;;;21.80;65.20;;;;;;4181345;28;20124;-51
2021/07/02 07:21:36;;;;;;;5.70;4.97;;;21.70;65.10;;;;;;4182490;28;20431;-52
2021/07/02 07:23:38;;;;;;;6.90;5.10;;;21.70;65.00;;;;;;4186649;28;20039;-54
2021/07/02 07:25:40;;;;;;;6.85;4.82;;;21.70;64.90;;;;;;4187759;28;20489;-54
2021/07/02 07:27:44;;;;;;;5.55;4.93;;;21.60;65.00;;;;;;4183265;28;20146;-52
2021/07/02 07:29:46;;;;;;;6.15;4.85;;;21.60;64.90;;;;;;4189917;28;20271;-48
2021/07/02 07:31:51;;;;;;;6.72;5.32;;;21.60;65.00;;;;;;4179924;28;20028;-51
2021/07/02 07:33:54;;;;;;;6.80;5.32;;;21.60;64.90;;;;;;4184583;28;20020;-54
2021/07/02 07:35:56;;;;;;;7.53;5.40;;;21.50;65.40;;;;;;4180373;28;20443;-51
2021/07/02 07:37:59;;;;;;;5.45;4.75;;;21.50;65.70;;;;;;4187735;28;20496;-54
2021/07/02 07:40:01;;;;;;;6.05;5.00;;;21.50;65.90;;;;;;4181439;28;20344;-51
2021/07/02 07:42:04;;;;;;;5.68;4.60;;;21.50;66.10;;;;;;4181407;28;20882;-56
2021/07/02 07:44:06;;;;;;;7.45;5.15;;;21.50;66.20;;;;;;4180290;28;20213;-53
2021/07/02 07:46:08;;;;;;;6.18;4.90;;;21.50;66.40;;;;;;4174347;28;20047;-54
2021/07/02 07:48:10;;;;;;;6.32;5.40;;;21.50;66.40;;;;;;4180157;28;20056;-57
2021/07/02 07:50:15;;;;;;;5.88;4.43;;;21.50;66.70;;;;;;4160157;28;20391;-55
2021/07/02 07:52:25;;;;;;;6.85;5.25;;;21.50;66.90;;;;;;4178266;28;20020;-56
2021/07/02 07:54:27;;;;;;;6.35;5.03;;;21.50;67.00;;;;;;4180447;28;20036;-53
2021/07/02 07:56:30;;;;;;;6.90;5.17;;;21.50;67.00;;;;;;4176065;28;20033;-53
2021/07/02 07:58:32;;;;;;;6.72;5.50;;;21.50;67.20;;;;;;4183857;28;20322;-54
2021/07/02 08:00:34;;;;;;;6.00;5.40;;;21.50;67.10;;;;;;4186529;28;20553;-57
2021/07/02 08:02:37;;;;;;;5.80;5.20;;;21.50;67.20;;;;;;4182272;28;20098;-55
2021/07/02 08:04:39;;;;;;;9.23;5.30;;;21.50;67.20;;;;;;4181099;28;20032;-51
2021/07/02 08:06:42;;;;;;;6.88;5.10;;;21.50;67.40;;;;;;4180988;28;20607;-53
2021/07/02 08:08:45;;;;;;;6.65;5.38;;;21.40;67.30;;;;;;4177904;28;20036;-56
2021/07/02 08:10:48;;;;;;;5.88;4.80;;;21.40;67.50;;;;;;4179344;28;20062;-52
2021/07/02 08:12:52;;;;;;;7.47;5.50;;;21.40;67.40;;;;;;4176868;28;20037;-54
2021/07/02 08:14:53;;;;;;;;;;;21.40;67.50;;;;;;4186507;28;20033;-52
2021/07/02 08:16:55;;;;;;;6.13;5.22;;;21.40;67.40;;;;;;4180206;28;19918;-51
2021/07/02 08:18:58;;;;;;;6.47;5.30;;;21.40;67.50;;;;;;4181013;28;20035;-54
2021/07/02 08:21:00;;;;;;;5.63;4.50;;;21.40;67.30;;;;;;4181431;28;20039;-48
2021/07/02 08:23:02;;;;;;;6.68;5.10;;;21.40;67.40;;;;;;4177029;28;20680;-51
2021/07/02 08:25:05;;;;;;;5.95;4.65;;;21.40;67.60;;;;;;4183521;28;20485;-53
2021/07/02 08:27:08;;;;;;;;;;;21.30;67.50;;;;;;4186326;28;20051;-51
2021/07/02 08:29:23;;;;;;;5.97;5.30;;;21.30;67.40;;;;;;4182000;28;20792;-50
2021/07/02 08:31:25;;;;;;;6.57;4.93;;;21.30;67.60;;;;;;4178879;28;20032;-55
2021/07/02 08:33:27;;;;;;;5.53;4.40;;;21.30;67.70;;;;;;4183155;28;20039;-51
2021/07/02 08:35:29;;;;;;;6.15;5.07;;;21.30;67.50;;;;;;4177611;28;20033;-48
2021/07/02 08:37:34;;;;;;;6.40;5.53;;;21.20;67.40;;;;;;4181370;28;20343;-46
2021/07/02 08:39:36;;;;;;;5.82;5.10;;;21.20;67.10;;;;;;4183049;28;20468;-52
2021/07/02 08:41:39;;;;;;;6.03;4.80;;;21.20;67.00;;;;;;4177317;28;20133;-50
2021/07/02 08:43:41;;;;;;;;;;;21.20;66.80;;;;;;4179592;28;20361;-54
2021/07/02 08:45:45;;;;;;;5.50;4.47;;;21.20;66.80;;;;;;4182604;28;20292;-55
2021/07/02 08:47:47;;;;;;;;;;;21.10;66.80;;;;;;4179415;28;20230;-53
2021/07/02 08:49:49;;;;;;;6.05;5.20;;;21.10;67.00;;;;;;4179891;28;19912;-56
2021/07/02 08:51:51;;;;;;;7.53;5.47;;;21.10;67.20;;;;;;4184834;28;20078;-52
2021/07/02 08:53:55;;;;;;;9.20;5.75;;;21.00;67.10;;;;;;4176125;28;20025;-54
2021/07/02 08:55:59;;;;;;;8.57;6.22;;;21.00;66.80;;;;;;4182817;28;20428;-55
2021/07/02 08:58:01;;;;;;;7.30;5.50;;;21.00;66.70;;;;;;4179549;28;20035;-56
2021/07/02 09:00:04;;;;;;;7.55;5.72;;;21.00;67.00;;;;;;4182722;28;20146;-56
2021/07/02 09:02:06;;;;;;;6.80;5.95;;;20.90;67.00;;;;;;4178560;28;20048;-56
2021/07/02 09:04:19;;;;;;;6.80;5.82;;;20.90;67.20;;;;;;4181090;28;20028;-55
2021/07/02 09:06:21;;;;;;;7.63;5.57;;;20.90;67.30;;;;;;4180725;28;20025;-56
2021/07/02 09:08:24;;;;;;;6.47;5.43;;;20.90;67.40;;;;;;4179078;28;20085;-51
2021/07/02 09:10:37;;;;;;;6.25;5.55;;;20.90;67.40;;;;;;4177666;28;20091;-61
2021/07/02 09:12:39;;;;;;;8.38;5.70;;;20.90;67.50;;;;;;4178578;28;20442;-60
2021/07/02 09:14:55;;;;;;;6.78;5.43;;;20.80;67.70;;;;;;4181401;28;20071;-60
2021/07/02 09:17:11;;;;;;;7.18;5.25;;;20.80;67.70;;;;;;4184198;28;20052;-62
2021/07/02 09:19:42;;;;;;;6.65;5.53;;;20.80;67.90;;;;;;4178990;28;20515;-60
2021/07/02 09:21:46;;;;;;;7.80;5.50;;;20.80;68.00;;;;;;4155989;28;20032;-63
2021/07/02 09:23:48;;;;;;;6.93;5.30;;;20.80;68.10;;;;;;4181170;28;20032;-62
2021/07/02 09:25:54;;;;;;;6.50;4.90;;;20.80;68.20;;;;;;4162538;28;20037;-62
2021/07/02 09:28:00;;;;;;;6.43;4.97;;;20.80;68.20;;;;;;4182897;28;20097;-62
2021/07/02 09:30:13;;;;;;;7.35;5.40;;;20.80;68.10;;;;;;4181767;28;20048;-62
2021/07/02 09:32:15;;;;;;;7.93;5.30;;;20.80;68.20;;;;;;4180007;28;20143;-62
2021/07/02 09:34:18;;;;;;;6.00;5.10;;;20.80;68.10;;;;;;4178105;28;20037;-58
2021/07/02 09:36:29;;;;;;;7.70;5.20;;;20.80;68.30;;;;;;4179746;28;20499;-58
2021/07/02 09:38:38;;;;;;;6.47;5.43;;;20.70;68.30;;;;;;4178489;28;20036;-58
2021/07/02 09:40:40;;;;;;;6.35;5.50;;;20.70;68.40;;;;;;4181293;28;20103;-61
2021/07/02 09:42:43;;;;;;;7.53;5.55;;;20.70;68.60;;;;;;4180185;28;20036;-61
2021/07/02 09:45:07;;;;;;;8.63;5.40;;;20.70;68.50;;;;;;4183757;28;20028;-62
2021/07/02 09:47:29;;;;;;;6.57;5.03;;;20.70;68.30;;;;;;4175910;28;20036;-61
2021/07/02 09:49:36;;;;;;;8.95;5.35;;;20.70;68.10;;;;;;4179606;28;20032;-60
2021/07/02 09:51:38;;;;;;;8.38;5.80;;;20.70;68.20;;;;;;4181332;28;20116;-61
2021/07/02 09:53:41;;;;;;;8.85;4.97;;;20.60;68.20;;;;;;4180417;28;20032;-60
2021/07/02 09:55:54;;;;;;;6.88;5.18;;;20.60;68.30;;;;;;4164467;28;20476;-61
2021/07/02 09:58:17;;;;;;;8.70;5.20;;;20.60;68.20;;;;;;4178524;28;20063;-60
2021/07/02 10:00:19;;;;;;;7.07;4.93;;;20.60;68.20;;;;;;4182647;28;20095;-61
2021/07/02 10:02:21;;;;;;;6.95;5.05;;;20.60;68.40;;;;;;4178564;28;20135;-59
2021/07/02 10:04:23;;;;;;;9.75;5.78;;;20.50;68.40;;;;;;4184724;28;20040;-61
2021/07/02 10:06:27;;;;;;;8.35;5.32;;;20.50;68.40;;;;;;4177386;28;20036;-60
2021/07/02 10:08:37;;;;;;;5.82;4.75;;;20.50;68.30;;;;;;4179481;28;20082;-58
2021/07/02 10:10:40;;;;;;;9.05;5.43;;;20.50;68.50;;;;;;4180455;28;20063;-60
2021/07/02 10:12:42;;;;;;;8.07;5.45;;;20.50;68.40;;;;;;4184002;28;20020;-64
2021/07/02 10:14:44;;;;;;;6.00;5.35;;;20.40;68.50;;;;;;4180377;28;20043;-64
2021/07/02 10:16:47;;;;;;;7.35;5.18;;;20.40;68.50;;;;;;4179260;28;20285;-60
2021/07/02 10:18:50;;;;;;;7.32;5.43;;;20.40;68.50;;;;;;4176054;28;20036;-60
2021/07/02 10:20:55;;;;;;;6.82;5.38;;;20.40;68.60;;;;;;4179140;28;20044;-62
2021/07/02 10:23:00;;;;;;;7.43;5.40;;;20.40;68.60;;;;;;4176869;28;20035;-65
2021/07/02 10:25:03;;;;;;;7.53;4.97;;;20.40;68.70;;;;;;4180610;28;20028;-60
2021/07/02 10:27:06;;;;;;;6.13;5.40;;;20.40;68.60;;;;;;4162084;28;20044;-60
2021/07/02 10:29:08;;;;;;;6.68;4.97;;;20.30;68.60;;;;;;4178380;28;20516;-60
2021/07/02 10:31:11;;;;;;;7.60;5.03;;;20.30;68.60;;;;;;4180112;28;20125;-59
2021/07/02 10:33:14;;;;;;;7.68;5.30;;;20.30;68.70;;;;;;4180895;28;20104;-59
2021/07/02 10:35:17;;;;;;;7.63;5.45;;;20.30;68.70;;;;;;4181982;28;20501;-60
2021/07/02 10:37:20;;;;;;;7.72;5.18;;;20.20;68.70;;;;;;4177852;28;20036;-60
2021/07/02 10:39:36;;;;;;;6.75;5.63;;;20.30;68.90;;;;;;4180245;28;20021;-59
2021/07/02 10:41:39;;;;;;;10.35;6.07;;;20.20;68.90;;;;;;4180971;28;20407;-59